createdAt,value
2018-02-21T00:01:09.704Z,97.62
2018-02-21T00:03:37.126Z,88.60
2018-02-21T00:06:04.549Z,96.20
2018-02-21T00:08:31.974Z,86.93
2018-02-21T00:10:59.390Z,86.22
2018-02-21T00:13:26.821Z,92.15
2018-02-21T00:15:54.232Z,81.15
2018-02-21T00:18:22.009Z,83.97
2018-02-21T00:20:49.425Z,92.07
2018-02-21T00:23:16.854Z,85.55
2018-02-21T00:25:44.274Z,82.90
2018-02-21T00:28:11.694Z,84.55
2018-02-21T00:30:39.118Z,91.22
2018-02-21T00:33:06.546Z,87.57
2018-02-21T00:35:33.962Z,85.68
2018-02-21T00:38:01.402Z,88.35
2018-02-21T00:40:28.827Z,89.75
2018-02-21T00:42:56.259Z,92.47
2018-02-21T00:45:23.670Z,90.72
2018-02-21T00:47:51.086Z,87.85
2018-02-21T00:50:18.505Z,83.22
2018-02-21T00:52:45.947Z,90.97
2018-02-21T00:55:13.390Z,87.18
2018-02-21T00:57:40.802Z,94.87
2018-02-21T01:00:08.213Z,95.85
2018-02-21T01:02:35.635Z,92.05
2018-02-21T01:05:03.058Z,99.97
2018-02-21T01:07:30.489Z,88.47
2018-02-21T01:09:57.908Z,91.70
2018-02-21T01:12:25.322Z,86.95
2018-02-21T01:14:52.745Z,92.57
2018-02-21T01:17:20.157Z,88.68
2018-02-21T01:19:47.599Z,85.72
2018-02-21T01:22:15.010Z,91.63
2018-02-21T01:24:42.428Z,82.55
2018-02-21T01:27:09.861Z,88.43
2018-02-21T01:29:37.278Z,81.22
2018-02-21T01:32:04.699Z,87.80
2018-02-21T01:34:32.125Z,88.57
2018-02-21T01:36:59.542Z,79.75
2018-02-21T01:39:26.982Z,94.45
2018-02-21T01:41:54.390Z,82.95
2018-02-21T01:44:21.818Z,91.68
2018-02-21T01:46:49.226Z,82.12
2018-02-21T01:49:16.641Z,84.13
2018-02-21T01:51:44.054Z,87.68
2018-02-21T01:54:11.489Z,92.12
2018-02-21T01:56:38.918Z,85.70
2018-02-21T01:59:06.334Z,88.60
2018-02-21T02:01:33.762Z,86.18
2018-02-21T02:04:01.181Z,94.82
2018-02-21T02:06:28.596Z,84.97
2018-02-21T02:08:56.017Z,96.63
2018-02-21T02:11:23.444Z,88.78
2018-02-21T02:13:50.855Z,88.70
2018-02-21T02:16:18.277Z,86.72
2018-02-21T02:18:45.685Z,84.93
2018-02-21T02:21:13.126Z,85.40
2018-02-21T02:23:40.551Z,84.30
2018-02-21T02:26:07.966Z,86.25
2018-02-21T02:28:35.391Z,80.72
2018-02-21T02:31:02.843Z,90.70
2018-02-21T02:33:30.269Z,82.53
2018-02-21T02:35:57.680Z,86.70
2018-02-21T02:38:36.956Z,84.68
2018-02-21T02:41:04.362Z,88.43
2018-02-21T02:43:31.781Z,84.22
2018-02-21T02:45:59.570Z,83.85
2018-02-21T02:48:27.005Z,91.57
2018-02-21T02:50:54.418Z,85.72
2018-02-21T02:53:21.863Z,79.15
2018-02-21T02:55:49.280Z,84.70
2018-02-21T02:58:16.694Z,87.15
2018-02-21T03:00:44.114Z,98.12
2018-02-21T03:03:11.537Z,78.12
2018-02-21T03:05:38.956Z,70.82
2018-02-21T03:08:06.383Z,84.10
2018-02-21T03:10:33.813Z,84.95
2018-02-21T03:13:01.235Z,85.20
2018-02-21T03:15:28.661Z,90.93
2018-02-21T03:17:56.069Z,85.62
2018-02-21T03:20:23.511Z,85.28
2018-02-21T03:22:50.939Z,77.95
2018-02-21T03:25:18.368Z,81.43
2018-02-21T03:27:45.773Z,85.25
2018-02-21T03:30:13.223Z,81.37
2018-02-21T03:32:40.648Z,76.55
2018-02-21T03:35:08.054Z,80.32
2018-02-21T03:37:35.477Z,81.12
2018-02-21T03:40:02.914Z,88.47
2018-02-21T03:42:30.353Z,80.70
2018-02-21T03:44:57.778Z,82.07
2018-02-21T03:47:25.200Z,80.45
2018-02-21T03:49:52.614Z,77.37
2018-02-21T03:52:20.034Z,82.60
2018-02-21T03:54:47.453Z,78.95
2018-02-21T03:57:15.355Z,76.45
2018-02-21T03:59:42.793Z,77.25
2018-02-21T04:02:10.212Z,78.15
2018-02-21T04:04:37.634Z,73.05
2018-02-21T04:07:05.050Z,82.88
2018-02-21T04:09:32.485Z,76.05
2018-02-21T04:11:59.894Z,73.03
2018-02-21T04:14:27.314Z,73.37
2018-02-21T04:16:54.733Z,75.80
2018-02-21T04:19:22.146Z,71.10
2018-02-21T04:21:49.607Z,80.70
2018-02-21T04:24:17.018Z,73.70
2018-02-21T04:26:44.438Z,74.45
2018-02-21T04:29:11.865Z,75.80
2018-02-21T04:31:39.282Z,72.65
2018-02-21T04:34:06.703Z,79.68
2018-02-21T04:36:34.122Z,80.70
2018-02-21T04:39:01.551Z,79.40
2018-02-21T04:41:28.989Z,78.85
2018-02-21T04:43:56.411Z,83.68
2018-02-21T04:46:23.826Z,83.70
2018-02-21T04:48:52.092Z,86.20
2018-02-21T04:51:19.510Z,89.00
2018-02-21T04:53:46.961Z,84.70
2018-02-21T04:56:20.003Z,92.28
2018-02-21T04:58:53.061Z,90.10
2018-02-21T05:01:20.483Z,84.65
2018-02-21T05:03:47.901Z,88.22
2018-02-21T05:06:15.323Z,87.53
2018-02-21T05:08:42.738Z,89.37
2018-02-21T05:11:10.158Z,85.40
2018-02-21T05:13:37.611Z,89.80
2018-02-21T05:16:05.018Z,94.35
2018-02-21T05:18:32.430Z,92.35
2018-02-21T05:20:59.856Z,97.18
2018-02-21T05:23:27.273Z,83.95
2018-02-21T05:25:54.741Z,91.60
2018-02-21T05:28:22.158Z,96.37
2018-02-21T05:30:49.624Z,92.57
2018-02-21T05:33:17.040Z,89.87
2018-02-21T05:35:44.458Z,100.25
2018-02-21T05:38:11.887Z,96.60
2018-02-21T05:40:39.299Z,94.45
2018-02-21T05:43:06.719Z,88.82
2018-02-21T05:45:34.199Z,93.28
2018-02-21T05:48:01.613Z,93.60
2018-02-21T05:50:29.073Z,101.25
2018-02-21T05:52:56.526Z,90.12
2018-02-21T05:55:23.957Z,90.47
2018-02-21T05:57:51.385Z,91.70
2018-02-21T06:00:18.798Z,89.65
2018-02-21T06:02:46.221Z,93.03
2018-02-21T06:05:13.655Z,92.45
2018-02-21T06:07:41.078Z,96.40
2018-02-21T06:10:08.498Z,92.20
2018-02-21T06:12:35.927Z,89.43
2018-02-21T06:15:03.567Z,96.18
2018-02-21T06:17:31.005Z,90.05
2018-02-21T06:19:58.446Z,96.57
2018-02-21T06:22:25.869Z,96.57
2018-02-21T06:24:53.296Z,95.15
2018-02-21T06:27:20.718Z,91.87
2018-02-21T06:29:48.147Z,96.72
2018-02-21T06:32:15.578Z,88.53
2018-02-21T06:34:43.002Z,87.15
2018-02-21T06:37:10.454Z,100.60
2018-02-21T06:39:37.874Z,86.40
2018-02-21T06:42:05.368Z,86.95
2018-02-21T06:44:32.808Z,84.75
2018-02-21T06:47:00.246Z,97.30
2018-02-21T06:49:27.674Z,99.53
2018-02-21T06:51:55.097Z,89.65
2018-02-21T06:54:22.545Z,83.53
2018-02-21T06:56:49.982Z,98.97
2018-02-21T06:59:17.668Z,87.85
2018-02-21T07:01:45.086Z,102.80
2018-02-21T07:04:12.522Z,100.43
2018-02-21T07:06:39.962Z,104.32
2018-02-21T07:09:07.398Z,106.18
2018-02-21T07:11:34.825Z,106.12
2018-02-21T07:14:02.257Z,99.57
2018-02-21T07:16:29.667Z,103.53
2018-02-21T07:18:57.094Z,112.55
2018-02-21T07:21:24.521Z,108.78
2018-02-21T07:23:52.283Z,109.15
2018-02-21T07:26:19.722Z,112.37
2018-02-21T07:28:47.137Z,109.97
2018-02-21T07:31:14.561Z,105.55
2018-02-21T07:33:41.978Z,112.95
2018-02-21T07:36:09.439Z,107.72
2018-02-21T07:38:36.854Z,126.50
2018-02-21T07:41:04.270Z,113.10
2018-02-21T07:43:31.693Z,106.78
2018-02-21T07:45:59.110Z,106.22
2018-02-21T07:48:26.797Z,127.18
2018-02-21T07:50:54.222Z,115.55
2018-02-21T07:53:21.638Z,125.90
2018-02-21T07:55:49.066Z,120.22
2018-02-21T07:58:16.487Z,121.90
2018-02-21T08:00:43.913Z,130.15
2018-02-21T08:03:11.346Z,125.45
2018-02-21T08:05:38.754Z,123.60
2018-02-21T08:08:06.182Z,131.00
2018-02-21T08:10:33.597Z,123.18
2018-02-21T08:13:01.495Z,118.47
2018-02-21T08:15:28.914Z,109.05
2018-02-21T08:17:56.332Z,115.43
2018-02-21T08:20:23.762Z,117.82
2018-02-21T08:22:51.186Z,125.28
2018-02-21T08:25:18.626Z,120.30
2018-02-21T08:27:46.046Z,120.32
2018-02-21T08:30:13.503Z,119.85
2018-02-21T08:32:40.952Z,118.62
2018-02-21T08:35:08.369Z,112.32
2018-02-21T08:37:36.256Z,119.93
2018-02-21T08:40:03.721Z,118.28
2018-02-21T08:42:31.139Z,122.85
2018-02-21T08:44:58.566Z,117.10
2018-02-21T08:47:26.014Z,113.90
2018-02-21T08:49:53.450Z,111.53
2018-02-21T08:52:20.886Z,111.62
2018-02-21T08:54:48.349Z,117.45
2018-02-21T08:57:15.800Z,114.20
2018-02-21T08:59:43.227Z,112.80
2018-02-21T09:02:10.953Z,111.50
2018-02-21T09:04:38.373Z,107.57
2018-02-21T09:07:05.794Z,120.22
2018-02-21T09:09:33.238Z,116.07
2018-02-21T09:12:00.670Z,113.72
2018-02-21T09:14:28.136Z,111.90
2018-02-21T09:16:55.566Z,103.65
2018-02-21T09:19:23.010Z,104.93
2018-02-21T09:21:50.471Z,101.82
2018-02-21T09:24:17.912Z,109.05
2018-02-21T09:26:45.343Z,109.15
2018-02-21T09:29:12.865Z,97.30
2018-02-21T09:31:40.254Z,110.20
2018-02-21T09:34:07.686Z,97.18
2018-02-21T09:36:35.124Z,94.53
2018-02-21T09:39:02.541Z,93.10
2018-02-21T09:41:29.949Z,92.23
2018-02-21T09:43:57.403Z,91.63
2018-02-21T09:46:24.828Z,78.77
2018-02-21T09:48:52.238Z,81.87
2018-02-21T09:51:19.670Z,87.40
2018-02-21T09:53:47.085Z,87.50
2018-02-21T09:56:14.521Z,78.17
2018-02-21T09:58:41.947Z,83.57
2018-02-21T10:01:09.370Z,73.77
2018-02-21T10:03:37.261Z,72.37
2018-02-21T10:06:04.682Z,86.40
2018-02-21T10:08:32.085Z,78.00
2018-02-21T10:10:59.531Z,79.97
2018-02-21T10:13:26.946Z,84.27
2018-02-21T10:15:54.378Z,83.17
2018-02-21T10:18:21.798Z,86.97
2018-02-21T10:20:49.233Z,80.47
2018-02-21T10:23:16.650Z,79.43
2018-02-21T10:25:44.093Z,73.03
2018-02-21T10:28:11.517Z,70.70
2018-02-21T10:30:38.936Z,68.43
2018-02-21T10:33:06.366Z,64.50
2018-02-21T10:35:33.826Z,77.70
2018-02-21T10:38:01.244Z,71.70
2018-02-21T10:40:28.683Z,72.67
2018-02-21T10:42:56.119Z,67.53
2018-02-21T10:45:23.567Z,67.57
2018-02-21T10:47:50.982Z,63.17
2018-02-21T10:50:18.401Z,67.47
2018-02-21T10:52:45.846Z,63.87
2018-02-21T10:55:13.268Z,63.63
2018-02-21T10:57:40.671Z,66.53
2018-02-21T11:00:08.098Z,67.30
2018-02-21T11:02:35.531Z,67.63
2018-02-21T11:05:02.946Z,62.30
2018-02-21T11:07:30.373Z,65.53
2018-02-21T11:09:57.806Z,60.40
2018-02-21T11:12:25.238Z,64.63
2018-02-21T11:14:52.658Z,56.80
2018-02-21T11:17:20.149Z,59.77
2018-02-21T11:19:47.574Z,65.03
2018-02-21T11:22:15.019Z,60.73
2018-02-21T11:24:42.442Z,56.63
2018-02-21T11:27:09.854Z,63.50
2018-02-21T11:29:37.310Z,59.30
2018-02-21T11:32:04.773Z,60.77
2018-02-21T11:34:32.459Z,60.80
2018-02-21T11:36:59.898Z,61.80
2018-02-21T11:39:27.328Z,60.17
2018-02-21T11:41:54.741Z,62.37
2018-02-21T11:44:22.153Z,61.20
2018-02-21T11:46:49.829Z,59.77
2018-02-21T11:49:17.243Z,53.90
2018-02-21T11:51:44.682Z,53.33
2018-02-21T11:54:12.122Z,50.37
2018-02-21T11:56:39.576Z,57.23
2018-02-21T11:59:07.025Z,46.27
2018-02-21T12:01:34.449Z,49.43
2018-02-21T12:04:01.875Z,48.37
2018-02-21T12:06:29.321Z,47.80
2018-02-21T12:08:56.799Z,46.07
2018-02-21T12:11:24.217Z,49.00
2018-02-21T12:13:51.660Z,48.73
2018-02-21T12:16:19.121Z,45.10
2018-02-21T12:18:46.592Z,57.33
2018-02-21T12:21:14.026Z,45.63
2018-02-21T12:23:41.441Z,53.63
2018-02-21T12:26:08.866Z,58.13
2018-02-21T12:28:36.317Z,57.57
2018-02-21T12:31:03.730Z,56.33
2018-02-21T12:33:31.146Z,60.30
2018-02-21T12:35:58.581Z,59.83
2018-02-21T12:38:26.006Z,60.23
2018-02-21T12:40:59.118Z,55.83
2018-02-21T12:43:26.550Z,61.37
2018-02-21T12:45:53.971Z,62.73
2018-02-21T12:48:21.422Z,61.50
2018-02-21T12:50:48.843Z,60.10
2018-02-21T12:53:16.283Z,57.33
2018-02-21T12:55:43.701Z,67.13
2018-02-21T12:58:11.134Z,61.50
2018-02-21T13:00:38.563Z,62.90
2018-02-21T13:03:06.002Z,64.00
2018-02-21T13:05:33.429Z,59.30
2018-02-21T13:08:00.856Z,61.67
2018-02-21T13:10:28.310Z,58.57
2018-02-21T13:12:55.729Z,59.80
2018-02-21T13:15:23.166Z,62.30
2018-02-21T13:17:50.589Z,61.77
2018-02-21T13:20:18.005Z,59.10
2018-02-21T13:22:45.453Z,58.93
2018-02-21T13:25:12.915Z,48.67
2018-02-21T13:27:40.392Z,52.30
2018-02-21T13:30:07.813Z,53.20
2018-02-21T13:32:35.214Z,48.43
2018-02-21T13:35:02.642Z,47.33
2018-02-21T13:37:30.094Z,46.90
2018-02-21T13:39:57.521Z,49.93
2018-02-21T13:42:24.942Z,44.37
2018-02-21T13:44:52.349Z,47.60
2018-02-21T13:47:19.782Z,46.17
2018-02-21T13:49:47.197Z,46.33
2018-02-21T13:52:14.614Z,38.53
2018-02-21T13:54:42.037Z,43.17
2018-02-21T13:57:09.455Z,40.53
2018-02-21T13:59:36.878Z,43.03
2018-02-21T14:02:04.309Z,40.90
2018-02-21T14:04:31.721Z,40.53
2018-02-21T14:06:59.147Z,41.37
2018-02-21T14:09:26.550Z,41.33
2018-02-21T14:11:53.978Z,40.10
2018-02-21T14:14:21.398Z,45.50
2018-02-21T14:16:48.823Z,44.50
2018-02-21T14:19:16.246Z,43.90
2018-02-21T14:21:43.661Z,48.23
2018-02-21T14:24:11.102Z,50.43
2018-02-21T14:26:38.510Z,48.10
2018-02-21T14:29:05.979Z,46.57
2018-02-21T14:31:33.346Z,53.10
2018-02-21T14:34:00.773Z,48.40
2018-02-21T14:36:28.202Z,45.23
2018-02-21T14:38:55.626Z,48.83
2018-02-21T14:41:23.041Z,55.50
2018-02-21T14:43:50.467Z,44.20
2018-02-21T14:46:17.877Z,44.57
2018-02-21T14:48:45.306Z,48.53
2018-02-21T14:51:12.716Z,43.67
2018-02-21T14:53:40.132Z,45.37
2018-02-21T14:56:07.550Z,47.10
2018-02-21T14:58:34.964Z,45.67
2018-02-21T15:01:02.389Z,45.63
2018-02-21T15:03:29.808Z,48.47
2018-02-21T15:05:57.220Z,50.00
2018-02-21T15:08:24.643Z,54.23
2018-02-21T15:10:52.058Z,53.30
2018-02-21T15:13:19.482Z,56.23
2018-02-21T15:15:46.891Z,54.73
2018-02-21T15:18:14.303Z,54.80
2018-02-21T15:20:41.722Z,50.20
2018-02-21T15:23:09.131Z,50.67
2018-02-21T15:25:36.557Z,52.23
2018-02-21T15:28:03.974Z,53.90
2018-02-21T15:30:31.386Z,51.83
2018-02-21T15:32:58.802Z,54.37
2018-02-21T15:35:26.211Z,53.03
2018-02-21T15:37:53.642Z,52.60
2018-02-21T15:40:21.063Z,54.27
2018-02-21T15:42:48.477Z,56.30
2018-02-21T15:45:15.904Z,57.67
2018-02-21T15:47:43.314Z,58.90
2018-02-21T15:50:10.750Z,59.80
2018-02-21T15:52:38.177Z,58.37
2018-02-21T15:55:05.587Z,56.17
2018-02-21T15:57:33.002Z,56.47
2018-02-21T16:00:00.417Z,53.37
2018-02-21T16:02:27.844Z,56.77
2018-02-21T16:04:55.271Z,60.45
2018-02-21T16:07:22.694Z,57.17
2018-02-21T16:09:50.130Z,58.05
2018-02-21T16:12:17.554Z,60.15
2018-02-21T16:14:45.002Z,55.38
2018-02-21T16:17:12.454Z,57.47
2018-02-21T16:19:39.874Z,55.50
2018-02-21T16:22:07.310Z,56.85
2018-02-21T16:24:34.729Z,58.95
2018-02-21T16:27:02.182Z,61.55
2018-02-21T16:29:29.614Z,57.88
2018-02-21T16:31:57.029Z,57.10
2018-02-21T16:34:24.458Z,56.50
2018-02-21T16:36:51.881Z,52.97
2018-02-21T16:39:19.311Z,54.67
2018-02-21T16:41:46.734Z,53.55
2018-02-21T16:44:14.171Z,57.53
2018-02-21T16:46:41.605Z,51.28
2018-02-21T16:49:09.021Z,52.65
2018-02-21T16:51:36.461Z,47.62
2018-02-21T16:54:09.481Z,47.95
2018-02-21T16:56:36.929Z,52.35
2018-02-21T16:59:04.341Z,42.33
2018-02-21T17:01:31.755Z,48.42
2018-02-21T17:03:59.180Z,44.88
2018-02-21T17:06:26.594Z,50.25
2018-02-21T17:08:54.022Z,44.05
2018-02-21T17:11:21.439Z,44.88
2018-02-21T17:13:48.870Z,45.78
2018-02-21T17:16:16.298Z,45.88
2018-02-21T17:18:43.726Z,44.30
2018-02-21T17:21:11.157Z,42.65
2018-02-21T17:23:38.578Z,40.67
2018-02-21T17:26:05.998Z,49.50
2018-02-21T17:28:33.426Z,43.10
2018-02-21T17:31:00.850Z,40.25
2018-02-21T17:33:28.295Z,41.90
2018-02-21T17:35:55.714Z,42.70
2018-02-21T17:38:23.141Z,46.00
2018-02-21T17:40:56.096Z,46.17
2018-02-21T17:43:23.525Z,43.47
2018-02-21T17:45:50.958Z,43.67
2018-02-21T17:48:18.399Z,44.83
2018-02-21T17:50:45.818Z,43.22
2018-02-21T17:53:13.251Z,45.17
2018-02-21T17:55:40.674Z,45.10
2018-02-21T17:58:08.102Z,48.08
2018-02-21T18:00:35.521Z,39.67
2018-02-21T18:03:02.941Z,41.65
2018-02-21T18:05:30.369Z,49.25
2018-02-21T18:07:57.789Z,48.45
2018-02-21T18:10:25.231Z,42.42
2018-02-21T18:12:52.657Z,46.45
2018-02-21T18:15:20.077Z,47.53
2018-02-21T18:17:47.509Z,45.97
2018-02-21T18:20:14.933Z,41.58
2018-02-21T18:22:42.728Z,42.28
2018-02-21T18:25:10.150Z,44.17
2018-02-21T18:27:37.566Z,44.80
2018-02-21T18:30:04.998Z,45.65
2018-02-21T18:32:32.414Z,45.72
2018-02-21T18:34:59.861Z,40.95
2018-02-21T18:37:27.286Z,45.72
2018-02-21T18:39:54.705Z,46.72
2018-02-21T18:42:22.161Z,49.22
2018-02-21T18:44:49.610Z,42.80
2018-02-21T18:47:17.022Z,43.08
2018-02-21T18:49:44.476Z,47.00
2018-02-21T18:52:11.891Z,49.85
2018-02-21T18:54:39.328Z,46.30
2018-02-21T18:57:06.741Z,47.15
2018-02-21T18:59:34.166Z,39.70
2018-02-21T19:02:01.592Z,42.05
2018-02-21T19:04:29.027Z,46.42
2018-02-21T19:06:56.473Z,48.50
2018-02-21T19:09:23.903Z,44.45
2018-02-21T19:11:51.326Z,44.35
2018-02-21T19:14:18.754Z,45.63
2018-02-21T19:16:46.178Z,47.80
2018-02-21T19:19:13.607Z,45.05
2018-02-21T19:21:41.026Z,44.78
2018-02-21T19:24:08.454Z,42.62
2018-02-21T19:26:35.878Z,42.50
2018-02-21T19:29:03.298Z,40.95
2018-02-21T19:31:30.734Z,46.03
2018-02-21T19:33:58.154Z,45.83
2018-02-21T19:36:25.577Z,42.60
2018-02-21T19:38:53.002Z,41.30
2018-02-21T19:41:20.424Z,43.38
2018-02-21T19:43:47.854Z,41.47
2018-02-21T19:46:15.262Z,42.45
2018-02-21T19:48:42.685Z,41.47
2018-02-21T19:51:10.126Z,45.92
2018-02-21T19:53:38.503Z,44.63
2018-02-21T19:56:05.956Z,42.78
2018-02-21T19:58:33.366Z,47.10
2018-02-21T20:01:00.789Z,45.67
2018-02-21T20:03:28.205Z,40.22
2018-02-21T20:05:55.621Z,39.50
2018-02-21T20:08:23.057Z,40.47
2018-02-21T20:10:50.466Z,46.30
2018-02-21T20:13:17.915Z,46.15
2018-02-21T20:15:45.313Z,45.65
2018-02-21T20:18:12.735Z,40.63
2018-02-21T20:20:40.170Z,43.45
2018-02-21T20:23:07.593Z,39.53
2018-02-21T20:25:35.075Z,41.58
2018-02-21T20:28:02.577Z,39.50
2018-02-21T20:30:30.027Z,46.08
2018-02-21T20:32:57.545Z,42.10
2018-02-21T20:35:25.090Z,45.65
2018-02-21T20:37:52.497Z,43.38
2018-02-21T20:40:19.921Z,43.00
2018-02-21T20:42:47.334Z,43.25
2018-02-21T20:45:14.775Z,46.45
2018-02-21T20:47:42.189Z,47.70
2018-02-21T20:50:09.601Z,45.58
2018-02-21T20:52:37.034Z,46.03
2018-02-21T20:55:04.450Z,49.13
2018-02-21T20:57:31.877Z,43.35
2018-02-21T20:59:59.298Z,47.00
2018-02-21T21:02:26.711Z,41.33
2018-02-21T21:04:54.136Z,44.17
2018-02-21T21:07:21.556Z,43.30
2018-02-21T21:09:48.981Z,44.13
2018-02-21T21:12:16.405Z,48.80
2018-02-21T21:14:43.826Z,49.08
2018-02-21T21:17:11.244Z,45.10
2018-02-21T21:19:38.653Z,46.03
2018-02-21T21:22:06.478Z,49.10
2018-02-21T21:24:33.906Z,45.38
2018-02-21T21:27:01.326Z,45.05
2018-02-21T21:29:28.758Z,45.25
2018-02-21T21:31:56.169Z,44.70
2018-02-21T21:34:23.703Z,46.67
2018-02-21T21:36:51.113Z,50.35
2018-02-21T21:39:18.530Z,49.95
2018-02-21T21:41:45.950Z,48.83
2018-02-21T21:44:13.362Z,48.63
2018-02-21T21:46:40.790Z,44.97
2018-02-21T21:49:08.210Z,48.45
2018-02-21T21:51:35.635Z,50.95
2018-02-21T21:54:03.058Z,48.85
2018-02-21T21:56:30.504Z,53.70
2018-02-21T21:58:57.906Z,49.95
2018-02-21T22:01:25.330Z,50.63
2018-02-21T22:03:52.741Z,53.85
2018-02-21T22:06:20.162Z,48.85
2018-02-21T22:08:47.586Z,46.15
2018-02-21T22:11:15.015Z,48.72
2018-02-21T22:13:42.429Z,47.20
2018-02-21T22:16:09.842Z,54.15
2018-02-21T22:18:37.282Z,51.60
2018-02-21T22:21:04.699Z,47.55
2018-02-21T22:23:32.137Z,54.03
2018-02-21T22:25:59.561Z,49.28
2018-02-21T22:28:26.974Z,57.60
2018-02-21T22:30:54.391Z,49.80
2018-02-21T22:33:21.835Z,50.33
2018-02-21T22:35:49.253Z,51.75
2018-02-21T22:38:16.681Z,51.33
2018-02-21T22:40:44.090Z,54.20
2018-02-21T22:43:11.510Z,50.95
2018-02-21T22:45:38.926Z,55.38
2018-02-21T22:48:06.354Z,55.17
2018-02-21T22:50:33.769Z,53.33
2018-02-21T22:53:01.190Z,51.05
2018-02-21T22:55:28.626Z,54.10
2018-02-21T22:57:56.042Z,54.00
2018-02-21T23:00:23.486Z,61.90
2018-02-21T23:02:50.914Z,66.40
2018-02-21T23:05:18.330Z,50.42
2018-02-21T23:07:45.762Z,55.47
2018-02-21T23:10:13.175Z,55.28
2018-02-21T23:12:40.598Z,56.65
2018-02-21T23:15:08.015Z,53.38
2018-02-21T23:17:35.447Z,53.03
2018-02-21T23:20:02.861Z,53.17
2018-02-21T23:22:30.306Z,56.47
2018-02-21T23:24:57.835Z,53.58
2018-02-21T23:27:25.270Z,61.20
2018-02-21T23:29:52.682Z,50.75
2018-02-21T23:32:20.121Z,52.53
2018-02-21T23:34:47.549Z,52.22
2018-02-21T23:37:14.974Z,51.17
2018-02-21T23:39:42.385Z,50.65
2018-02-21T23:42:09.814Z,57.38
2018-02-21T23:44:37.247Z,55.70
2018-02-21T23:47:04.670Z,57.53
2018-02-21T23:49:32.093Z,54.35
2018-02-21T23:51:59.510Z,58.35
2018-02-21T23:54:26.959Z,57.60
2018-02-21T23:56:54.395Z,55.42
2018-02-21T23:59:21.813Z,55.00
